createdAt,value
2023-02-18T00:16:34.000Z,8.70
2023-02-18T00:26:35.000Z,17.10
2023-02-18T00:36:35.000Z,8.80
2023-02-18T00:46:36.000Z,13.10
2023-02-18T00:56:36.000Z,6.60
2023-02-18T01:06:37.000Z,8.20
2023-02-18T01:16:37.000Z,5.20
2023-02-18T01:26:38.000Z,5.10
2023-02-18T01:46:39.000Z,9.00
2023-02-18T01:56:40.000Z,5.80
2023-02-18T02:06:40.000Z,16.40
2023-02-18T02:16:41.000Z,14.30
2023-02-18T02:26:42.000Z,16.20
2023-02-18T02:36:42.000Z,10.80
2023-02-18T02:46:43.000Z,13.60
2023-02-18T02:56:43.000Z,5.90
2023-02-18T03:16:44.000Z,29.80
2023-02-18T03:26:45.000Z,13.10
2023-02-18T03:36:45.000Z,12.30
2023-02-18T03:46:46.000Z,13.60
2023-02-18T03:56:47.000Z,24.20
2023-02-18T04:06:47.000Z,5.40
2023-02-18T04:16:48.000Z,11.80
2023-02-18T04:26:48.000Z,20.60
2023-02-18T04:46:49.000Z,20.30
2023-02-18T04:56:50.000Z,29.50
2023-02-18T05:06:50.000Z,23.20
2023-02-18T05:16:51.000Z,11.80
2023-02-18T05:26:51.000Z,24.40
2023-02-18T05:36:52.000Z,35.10
2023-02-18T05:46:53.000Z,45.30
2023-02-18T05:56:53.000Z,57.90
2023-02-18T06:16:54.000Z,79.70
2023-02-18T06:26:55.000Z,121.60
2023-02-18T06:36:55.000Z,96.40
2023-02-18T06:46:56.000Z,124.70
2023-02-18T06:56:56.000Z,122.50
2023-02-18T07:06:57.000Z,124.80
2023-02-18T07:16:57.000Z,106.40
2023-02-18T07:26:58.000Z,120.80
2023-02-18T07:46:59.000Z,107.70
2023-02-18T07:56:59.000Z,89.10
2023-02-18T08:07:00.000Z,73.60
2023-02-18T08:17:00.000Z,33.00
2023-02-18T08:27:01.000Z,16.90
2023-02-18T08:37:01.000Z,9.30
2023-02-18T08:37:01.000Z,9.30
2023-02-18T08:47:02.000Z,6.10
2023-02-18T09:43:12.000Z,3.60
2023-02-18T10:40:50.000Z,2.80
2023-02-18T12:40:47.000Z,3.50
2023-02-18T12:40:47.000Z,3.70
2023-02-18T12:50:47.000Z,3.10
2023-02-18T13:00:47.000Z,3.00
2023-02-18T13:10:47.000Z,3.40
2023-02-18T13:20:47.000Z,3.00
2023-02-18T13:30:47.000Z,3.00
2023-02-18T13:40:47.000Z,3.80
2023-02-18T13:50:47.000Z,3.40
2023-02-18T14:10:47.000Z,4.00
2023-02-18T14:41:05.000Z,4.20
2023-02-18T14:41:05.000Z,3.50
2023-02-18T14:51:05.000Z,3.60
2023-02-18T15:01:05.000Z,3.50
2023-02-18T15:11:05.000Z,3.60
2023-02-18T15:21:06.000Z,5.60
2023-02-18T15:31:06.000Z,3.80
2023-02-18T15:41:06.000Z,3.80
2023-02-18T15:51:06.000Z,3.40
2023-02-18T16:11:07.000Z,3.60
2023-02-18T16:21:07.000Z,3.10
2023-02-18T16:31:08.000Z,4.50
2023-02-18T16:41:08.000Z,4.00
2023-02-18T16:51:08.000Z,3.60
2023-02-18T17:01:09.000Z,3.70
2023-02-18T17:11:09.000Z,4.20
2023-02-18T17:21:09.000Z,4.30
2023-02-18T17:41:10.000Z,6.80
2023-02-18T17:51:11.000Z,6.10
2023-02-18T18:01:11.000Z,6.30
2023-02-18T18:11:11.000Z,6.00
2023-02-18T18:21:12.000Z,6.60
2023-02-18T18:31:12.000Z,6.00
2023-02-18T18:41:13.000Z,6.10
2023-02-18T18:51:13.000Z,7.70
2023-02-18T19:11:14.000Z,9.50
2023-02-18T19:21:14.000Z,8.60
2023-02-18T19:31:15.000Z,7.40
2023-02-18T19:41:15.000Z,7.70
2023-02-18T19:51:15.000Z,6.80
2023-02-18T20:01:16.000Z,7.50
2023-02-18T20:11:16.000Z,7.10
2023-02-18T20:21:17.000Z,6.60
2023-02-18T20:41:18.000Z,9.60
2023-02-18T20:51:18.000Z,11.20
2023-02-18T21:01:18.000Z,24.10
2023-02-18T21:11:19.000Z,28.80
2023-02-18T21:21:19.000Z,33.30
2023-02-18T21:31:20.000Z,34.60
2023-02-18T21:41:20.000Z,22.50
2023-02-18T21:51:20.000Z,13.40
2023-02-18T22:11:21.000Z,16.30
2023-02-18T22:21:22.000Z,10.10
2023-02-18T22:31:22.000Z,15.20
2023-02-18T22:41:22.000Z,18.40
2023-02-18T22:51:23.000Z,16.10
2023-02-18T23:01:23.000Z,25.20
2023-02-18T23:11:24.000Z,10.60
2023-02-18T23:21:24.000Z,11.50
2023-02-18T23:41:25.000Z,16.80
2023-02-18T23:51:26.000Z,14.70
